sensor_id;sensor_type;location;lat;lon;timestamp;P1;durP1;ratioP1;P2;durP2;ratioP2
50683;SDS011;36654;45.042;38.994;2024-01-27T00:02:21;7.90;;;5.00;;
50683;SDS011;36654;45.042;38.994;2024-01-27T00:04:46;7.47;;;5.53;;
50683;SDS011;36654;45.042;38.994;2024-01-27T00:07:13;7.10;;;4.68;;
50683;SDS011;36654;45.042;38.994;2024-01-27T00:09:39;7.53;;;4.95;;
50683;SDS011;36654;45.042;38.994;2024-01-27T00:12:06;7.15;;;5.00;;
50683;SDS011;36654;45.042;38.994;2024-01-27T00:14:32;9.32;;;5.45;;
50683;SDS011;36654;45.042;38.994;2024-01-27T00:16:57;7.97;;;6.03;;
50683;SDS011;36654;45.042;38.994;2024-01-27T00:19:24;8.73;;;6.43;;
50683;SDS011;36654;45.042;38.994;2024-01-27T00:21:50;7.78;;;5.85;;
50683;SDS011;36654;45.042;38.994;2024-01-27T00:24:17;8.48;;;5.68;;
50683;SDS011;36654;45.042;38.994;2024-01-27T00:26:44;7.68;;;5.47;;
50683;SDS011;36654;45.042;38.994;2024-01-27T00:29:09;9.60;;;6.88;;
50683;SDS011;36654;45.042;38.994;2024-01-27T00:31:35;12.48;;;6.18;;
50683;SDS011;36654;45.042;38.994;2024-01-27T00:34:01;7.60;;;6.05;;
50683;SDS011;36654;45.042;38.994;2024-01-27T00:36:27;8.77;;;6.03;;
50683;SDS011;36654;45.042;38.994;2024-01-27T00:38:52;9.75;;;6.57;;
50683;SDS011;36654;45.042;38.994;2024-01-27T00:41:18;10.50;;;6.47;;
50683;SDS011;36654;45.042;38.994;2024-01-27T00:43:45;9.98;;;6.15;;
50683;SDS011;36654;45.042;38.994;2024-01-27T00:46:10;16.40;;;9.85;;
50683;SDS011;36654;45.042;38.994;2024-01-27T00:48:36;13.10;;;9.70;;
50683;SDS011;36654;45.042;38.994;2024-01-27T00:51:02;10.75;;;6.95;;
50683;SDS011;36654;45.042;38.994;2024-01-27T00:53:29;11.65;;;6.35;;
50683;SDS011;36654;45.042;38.994;2024-01-27T00:55:55;10.57;;;7.00;;
50683;SDS011;36654;45.042;38.994;2024-01-27T00:58:22;10.15;;;6.80;;
50683;SDS011;36654;45.042;38.994;2024-01-27T01:00:47;9.32;;;6.32;;
50683;SDS011;36654;45.042;38.994;2024-01-27T01:03:13;14.43;;;7.80;;
50683;SDS011;36654;45.042;38.994;2024-01-27T01:05:38;9.10;;;6.07;;
50683;SDS011;36654;45.042;38.994;2024-01-27T01:08:04;11.50;;;7.22;;
50683;SDS011;36654;45.042;38.994;2024-01-27T01:10:31;10.23;;;5.75;;
50683;SDS011;36654;45.042;38.994;2024-01-27T01:12:57;13.73;;;7.07;;
50683;SDS011;36654;45.042;38.994;2024-01-27T01:15:22;10.95;;;6.68;;
50683;SDS011;36654;45.042;38.994;2024-01-27T01:17:48;10.93;;;5.90;;
50683;SDS011;36654;45.042;38.994;2024-01-27T01:20:14;8.50;;;5.70;;
50683;SDS011;36654;45.042;38.994;2024-01-27T01:22:40;10.00;;;5.55;;
50683;SDS011;36654;45.042;38.994;2024-01-27T01:25:06;7.95;;;5.68;;
50683;SDS011;36654;45.042;38.994;2024-01-27T01:27:31;9.88;;;5.85;;
50683;SDS011;36654;45.042;38.994;2024-01-27T01:29:57;9.65;;;5.70;;
50683;SDS011;36654;45.042;38.994;2024-01-27T01:32:23;8.90;;;5.63;;
50683;SDS011;36654;45.042;38.994;2024-01-27T01:34:49;7.97;;;5.60;;
50683;SDS011;36654;45.042;38.994;2024-01-27T01:37:14;10.75;;;5.97;;
50683;SDS011;36654;45.042;38.994;2024-01-27T01:39:40;10.57;;;6.05;;
50683;SDS011;36654;45.042;38.994;2024-01-27T01:42:05;10.30;;;5.68;;
50683;SDS011;36654;45.042;38.994;2024-01-27T01:44:31;9.48;;;5.32;;
50683;SDS011;36654;45.042;38.994;2024-01-27T01:46:57;9.80;;;5.75;;
50683;SDS011;36654;45.042;38.994;2024-01-27T01:49:23;8.43;;;5.85;;
50683;SDS011;36654;45.042;38.994;2024-01-27T01:51:49;9.27;;;6.43;;
50683;SDS011;36654;45.042;38.994;2024-01-27T01:54:15;9.52;;;5.57;;
50683;SDS011;36654;45.042;38.994;2024-01-27T01:56:41;12.48;;;6.25;;
50683;SDS011;36654;45.042;38.994;2024-01-27T01:59:07;10.23;;;7.00;;
50683;SDS011;36654;45.042;38.994;2024-01-27T02:01:33;9.82;;;6.63;;
50683;SDS011;36654;45.042;38.994;2024-01-27T02:03:59;8.70;;;6.60;;
50683;SDS011;36654;45.042;38.994;2024-01-27T02:06:24;12.85;;;7.03;;
50683;SDS011;36654;45.042;38.994;2024-01-27T02:08:50;11.00;;;6.28;;
50683;SDS011;36654;45.042;38.994;2024-01-27T02:11:16;10.70;;;6.93;;
50683;SDS011;36654;45.042;38.994;2024-01-27T02:13:42;10.00;;;5.75;;
50683;SDS011;36654;45.042;38.994;2024-01-27T02:16:08;12.38;;;7.03;;
50683;SDS011;36654;45.042;38.994;2024-01-27T02:18:34;7.93;;;5.53;;
50683;SDS011;36654;45.042;38.994;2024-01-27T02:21:01;9.80;;;5.80;;
50683;SDS011;36654;45.042;38.994;2024-01-27T02:23:27;10.48;;;6.25;;
50683;SDS011;36654;45.042;38.994;2024-01-27T02:25:52;9.98;;;6.55;;
50683;SDS011;36654;45.042;38.994;2024-01-27T02:28:18;11.02;;;6.68;;
50683;SDS011;36654;45.042;38.994;2024-01-27T02:30:45;10.57;;;6.57;;
50683;SDS011;36654;45.042;38.994;2024-01-27T02:33:11;11.68;;;7.25;;
50683;SDS011;36654;45.042;38.994;2024-01-27T02:35:36;15.40;;;8.65;;
50683;SDS011;36654;45.042;38.994;2024-01-27T02:38:02;12.57;;;8.25;;
50683;SDS011;36654;45.042;38.994;2024-01-27T02:40:28;17.85;;;8.55;;
50683;SDS011;36654;45.042;38.994;2024-01-27T02:42:53;19.15;;;8.95;;
50683;SDS011;36654;45.042;38.994;2024-01-27T02:45:20;13.73;;;8.95;;
50683;SDS011;36654;45.042;38.994;2024-01-27T02:47:46;14.15;;;9.38;;
50683;SDS011;36654;45.042;38.994;2024-01-27T02:50:11;14.02;;;9.02;;
50683;SDS011;36654;45.042;38.994;2024-01-27T02:52:37;16.77;;;9.63;;
50683;SDS011;36654;45.042;38.994;2024-01-27T02:55:03;14.20;;;9.52;;
50683;SDS011;36654;45.042;38.994;2024-01-27T02:57:29;14.77;;;9.55;;
50683;SDS011;36654;45.042;38.994;2024-01-27T02:59:54;13.40;;;8.75;;
50683;SDS011;36654;45.042;38.994;2024-01-27T03:02:20;13.57;;;9.23;;
50683;SDS011;36654;45.042;38.994;2024-01-27T03:04:46;15.38;;;8.20;;
50683;SDS011;36654;45.042;38.994;2024-01-27T03:07:11;12.25;;;8.65;;
50683;SDS011;36654;45.042;38.994;2024-01-27T03:09:37;12.90;;;8.55;;
50683;SDS011;36654;45.042;38.994;2024-01-27T03:12:03;14.82;;;8.07;;
50683;SDS011;36654;45.042;38.994;2024-01-27T03:14:28;14.02;;;8.82;;
50683;SDS011;36654;45.042;38.994;2024-01-27T03:16:54;12.60;;;7.93;;
50683;SDS011;36654;45.042;38.994;2024-01-27T03:19:20;14.77;;;9.25;;
50683;SDS011;36654;45.042;38.994;2024-01-27T03:21:46;16.20;;;9.45;;
50683;SDS011;36654;45.042;38.994;2024-01-27T03:24:11;13.75;;;8.77;;
50683;SDS011;36654;45.042;38.994;2024-01-27T03:26:37;17.42;;;10.30;;
50683;SDS011;36654;45.042;38.994;2024-01-27T03:29:03;18.83;;;10.85;;
50683;SDS011;36654;45.042;38.994;2024-01-27T03:31:36;19.77;;;10.95;;
50683;SDS011;36654;45.042;38.994;2024-01-27T03:34:02;17.98;;;10.90;;
50683;SDS011;36654;45.042;38.994;2024-01-27T03:36:28;17.83;;;10.05;;
50683;SDS011;36654;45.042;38.994;2024-01-27T03:38:54;17.08;;;10.23;;
50683;SDS011;36654;45.042;38.994;2024-01-27T03:41:21;20.08;;;11.73;;
50683;SDS011;36654;45.042;38.994;2024-01-27T03:43:47;18.35;;;11.70;;
50683;SDS011;36654;45.042;38.994;2024-01-27T03:46:12;19.83;;;11.35;;
50683;SDS011;36654;45.042;38.994;2024-01-27T03:48:40;24.92;;;12.88;;
50683;SDS011;36654;45.042;38.994;2024-01-27T03:51:06;22.48;;;11.90;;
50683;SDS011;36654;45.042;38.994;2024-01-27T03:53:31;21.23;;;11.55;;
50683;SDS011;36654;45.042;38.994;2024-01-27T03:55:57;22.33;;;11.93;;
50683;SDS011;36654;45.042;38.994;2024-01-27T03:58:29;21.05;;;11.80;;
50683;SDS011;36654;45.042;38.994;2024-01-27T04:00:58;19.48;;;11.82;;
50683;SDS011;36654;45.042;38.994;2024-01-27T04:03:24;18.00;;;10.68;;
50683;SDS011;36654;45.042;38.994;2024-01-27T04:05:50;14.52;;;8.68;;
50683;SDS011;36654;45.042;38.994;2024-01-27T04:08:17;15.32;;;9.52;;
50683;SDS011;36654;45.042;38.994;2024-01-27T04:10:42;16.73;;;10.20;;
50683;SDS011;36654;45.042;38.994;2024-01-27T04:13:08;15.23;;;8.85;;
50683;SDS011;36654;45.042;38.994;2024-01-27T04:15:33;19.60;;;9.60;;
50683;SDS011;36654;45.042;38.994;2024-01-27T04:18:06;13.80;;;9.10;;
50683;SDS011;36654;45.042;38.994;2024-01-27T04:20:33;18.80;;;11.40;;
50683;SDS011;36654;45.042;38.994;2024-01-27T04:23:00;16.77;;;10.70;;
50683;SDS011;36654;45.042;38.994;2024-01-27T04:25:25;20.15;;;10.75;;
50683;SDS011;36654;45.042;38.994;2024-01-27T04:27:55;15.40;;;8.23;;
50683;SDS011;36654;45.042;38.994;2024-01-27T04:30:21;20.48;;;12.23;;
50683;SDS011;36654;45.042;38.994;2024-01-27T04:32:51;21.33;;;13.10;;
50683;SDS011;36654;45.042;38.994;2024-01-27T04:35:17;21.20;;;11.93;;
50683;SDS011;36654;45.042;38.994;2024-01-27T04:37:43;18.70;;;11.45;;
50683;SDS011;36654;45.042;38.994;2024-01-27T04:40:10;18.02;;;11.65;;
50683;SDS011;36654;45.042;38.994;2024-01-27T04:42:37;18.35;;;11.20;;
50683;SDS011;36654;45.042;38.994;2024-01-27T04:45:04;18.58;;;10.50;;
50683;SDS011;36654;45.042;38.994;2024-01-27T04:47:30;24.95;;;12.95;;
50683;SDS011;36654;45.042;38.994;2024-01-27T04:49:56;21.27;;;11.50;;
50683;SDS011;36654;45.042;38.994;2024-01-27T04:52:22;19.25;;;11.70;;
50683;SDS011;36654;45.042;38.994;2024-01-27T04:54:49;20.70;;;11.40;;
50683;SDS011;36654;45.042;38.994;2024-01-27T04:57:14;18.80;;;11.73;;
50683;SDS011;36654;45.042;38.994;2024-01-27T04:59:41;22.67;;;11.65;;
50683;SDS011;36654;45.042;38.994;2024-01-27T05:02:06;20.02;;;11.60;;
50683;SDS011;36654;45.042;38.994;2024-01-27T05:04:32;18.33;;;11.60;;
50683;SDS011;36654;45.042;38.994;2024-01-27T05:06:57;19.75;;;12.00;;
50683;SDS011;36654;45.042;38.994;2024-01-27T05:09:23;18.40;;;11.98;;
50683;SDS011;36654;45.042;38.994;2024-01-27T05:11:49;17.98;;;11.45;;
50683;SDS011;36654;45.042;38.994;2024-01-27T05:14:17;20.77;;;12.43;;
50683;SDS011;36654;45.042;38.994;2024-01-27T05:16:43;23.80;;;12.57;;
50683;SDS011;36654;45.042;38.994;2024-01-27T05:19:09;21.15;;;12.15;;
50683;SDS011;36654;45.042;38.994;2024-01-27T05:21:35;18.95;;;12.18;;
50683;SDS011;36654;45.042;38.994;2024-01-27T05:24:01;19.17;;;12.43;;
50683;SDS011;36654;45.042;38.994;2024-01-27T05:26:26;22.63;;;12.35;;
50683;SDS011;36654;45.042;38.994;2024-01-27T05:28:52;19.63;;;13.10;;
50683;SDS011;36654;45.042;38.994;2024-01-27T05:31:18;21.50;;;13.43;;
50683;SDS011;36654;45.042;38.994;2024-01-27T05:33:43;22.08;;;13.25;;
50683;SDS011;36654;45.042;38.994;2024-01-27T05:36:09;22.35;;;14.50;;
50683;SDS011;36654;45.042;38.994;2024-01-27T05:38:35;29.88;;;18.65;;
50683;SDS011;36654;45.042;38.994;2024-01-27T05:41:01;28.25;;;18.52;;
50683;SDS011;36654;45.042;38.994;2024-01-27T05:43:27;28.88;;;18.02;;
50683;SDS011;36654;45.042;38.994;2024-01-27T05:45:53;28.67;;;17.67;;
50683;SDS011;36654;45.042;38.994;2024-01-27T05:48:18;26.35;;;16.75;;
50683;SDS011;36654;45.042;38.994;2024-01-27T05:50:54;25.27;;;15.65;;
50683;SDS011;36654;45.042;38.994;2024-01-27T05:53:23;25.77;;;15.82;;
50683;SDS011;36654;45.042;38.994;2024-01-27T05:55:51;32.72;;;15.55;;
50683;SDS011;36654;45.042;38.994;2024-01-27T05:58:22;27.77;;;17.02;;
50683;SDS011;36654;45.042;38.994;2024-01-27T06:00:48;27.10;;;16.02;;
50683;SDS011;36654;45.042;38.994;2024-01-27T06:03:14;24.95;;;15.20;;
50683;SDS011;36654;45.042;38.994;2024-01-27T06:05:43;27.15;;;16.63;;
50683;SDS011;36654;45.042;38.994;2024-01-27T06:08:09;28.58;;;17.25;;
50683;SDS011;36654;45.042;38.994;2024-01-27T06:10:35;26.05;;;16.77;;
50683;SDS011;36654;45.042;38.994;2024-01-27T06:13:03;29.55;;;16.58;;
50683;SDS011;36654;45.042;38.994;2024-01-27T06:15:29;30.55;;;16.33;;
50683;SDS011;36654;45.042;38.994;2024-01-27T06:17:55;29.67;;;18.20;;
50683;SDS011;36654;45.042;38.994;2024-01-27T06:20:22;36.33;;;20.05;;
50683;SDS011;36654;45.042;38.994;2024-01-27T06:22:48;37.03;;;21.73;;
50683;SDS011;36654;45.042;38.994;2024-01-27T06:25:14;39.75;;;22.63;;
50683;SDS011;36654;45.042;38.994;2024-01-27T06:27:40;39.42;;;22.08;;
50683;SDS011;36654;45.042;38.994;2024-01-27T06:30:08;36.83;;;19.05;;
50683;SDS011;36654;45.042;38.994;2024-01-27T06:32:35;34.63;;;19.20;;
50683;SDS011;36654;45.042;38.994;2024-01-27T06:35:01;35.70;;;18.27;;
50683;SDS011;36654;45.042;38.994;2024-01-27T06:37:28;41.88;;;20.70;;
50683;SDS011;36654;45.042;38.994;2024-01-27T06:39:53;37.75;;;19.63;;
50683;SDS011;36654;45.042;38.994;2024-01-27T06:42:19;36.35;;;18.48;;
50683;SDS011;36654;45.042;38.994;2024-01-27T06:44:44;37.20;;;18.80;;
50683;SDS011;36654;45.042;38.994;2024-01-27T06:47:10;35.20;;;17.48;;
50683;SDS011;36654;45.042;38.994;2024-01-27T06:49:36;37.45;;;17.98;;
50683;SDS011;36654;45.042;38.994;2024-01-27T06:52:02;34.42;;;18.42;;
50683;SDS011;36654;45.042;38.994;2024-01-27T06:54:28;31.67;;;17.38;;
50683;SDS011;36654;45.042;38.994;2024-01-27T06:56:53;35.13;;;16.75;;
50683;SDS011;36654;45.042;38.994;2024-01-27T06:59:19;49.90;;;23.13;;
50683;SDS011;36654;45.042;38.994;2024-01-27T07:01:55;39.72;;;18.33;;
50683;SDS011;36654;45.042;38.994;2024-01-27T07:04:21;33.20;;;17.70;;
50683;SDS011;36654;45.042;38.994;2024-01-27T07:06:48;33.25;;;17.55;;
50683;SDS011;36654;45.042;38.994;2024-01-27T07:09:14;33.42;;;17.48;;
50683;SDS011;36654;45.042;38.994;2024-01-27T07:11:44;31.30;;;18.20;;
50683;SDS011;36654;45.042;38.994;2024-01-27T07:14:13;33.95;;;18.42;;
50683;SDS011;36654;45.042;38.994;2024-01-27T07:16:39;42.15;;;20.52;;
50683;SDS011;36654;45.042;38.994;2024-01-27T07:19:05;33.35;;;17.13;;
50683;SDS011;36654;45.042;38.994;2024-01-27T07:21:30;34.75;;;18.15;;
50683;SDS011;36654;45.042;38.994;2024-01-27T07:23:56;34.83;;;19.52;;
50683;SDS011;36654;45.042;38.994;2024-01-27T07:26:22;123.78;;;57.72;;
50683;SDS011;36654;45.042;38.994;2024-01-27T07:28:50;36.47;;;18.88;;
50683;SDS011;36654;45.042;38.994;2024-01-27T07:31:16;37.33;;;18.88;;
50683;SDS011;36654;45.042;38.994;2024-01-27T07:33:42;33.92;;;19.83;;
50683;SDS011;36654;45.042;38.994;2024-01-27T07:36:08;28.95;;;16.13;;
50683;SDS011;36654;45.042;38.994;2024-01-27T07:38:33;30.40;;;17.40;;
50683;SDS011;36654;45.042;38.994;2024-01-27T07:40:59;30.23;;;18.45;;
50683;SDS011;36654;45.042;38.994;2024-01-27T07:43:25;30.48;;;16.58;;
50683;SDS011;36654;45.042;38.994;2024-01-27T07:45:52;31.35;;;17.70;;
50683;SDS011;36654;45.042;38.994;2024-01-27T07:48:18;32.53;;;18.00;;
50683;SDS011;36654;45.042;38.994;2024-01-27T07:50:44;32.28;;;17.73;;
50683;SDS011;36654;45.042;38.994;2024-01-27T07:55:39;34.28;;;18.20;;
50683;SDS011;36654;45.042;38.994;2024-01-27T07:58:04;32.50;;;17.17;;
50683;SDS011;36654;45.042;38.994;2024-01-27T08:00:31;29.85;;;16.75;;
50683;SDS011;36654;45.042;38.994;2024-01-27T08:02:57;29.48;;;16.88;;
50683;SDS011;36654;45.042;38.994;2024-01-27T08:05:23;26.92;;;16.25;;
50683;SDS011;36654;45.042;38.994;2024-01-27T08:07:49;30.10;;;18.60;;
50683;SDS011;36654;45.042;38.994;2024-01-27T08:10:15;30.73;;;19.55;;
50683;SDS011;36654;45.042;38.994;2024-01-27T08:12:42;28.83;;;18.50;;
50683;SDS011;36654;45.042;38.994;2024-01-27T08:17:53;33.40;;;18.67;;
50683;SDS011;36654;45.042;38.994;2024-01-27T08:20:18;34.95;;;18.70;;
50683;SDS011;36654;45.042;38.994;2024-01-27T08:22:46;27.92;;;16.40;;
50683;SDS011;36654;45.042;38.994;2024-01-27T08:25:15;29.85;;;17.63;;
50683;SDS011;36654;45.042;38.994;2024-01-27T08:27:41;33.13;;;17.52;;
50683;SDS011;36654;45.042;38.994;2024-01-27T08:30:07;36.63;;;19.42;;
50683;SDS011;36654;45.042;38.994;2024-01-27T08:32:36;37.47;;;21.90;;
50683;SDS011;36654;45.042;38.994;2024-01-27T08:35:02;30.95;;;18.23;;
50683;SDS011;36654;45.042;38.994;2024-01-27T08:37:28;36.55;;;19.48;;
50683;SDS011;36654;45.042;38.994;2024-01-27T08:39:53;37.78;;;19.92;;
50683;SDS011;36654;45.042;38.994;2024-01-27T08:42:20;36.45;;;19.38;;
50683;SDS011;36654;45.042;38.994;2024-01-27T08:44:46;51.40;;;24.85;;
50683;SDS011;36654;45.042;38.994;2024-01-27T08:47:11;119.60;;;49.67;;
50683;SDS011;36654;45.042;38.994;2024-01-27T08:49:37;91.60;;;37.58;;
50683;SDS011;36654;45.042;38.994;2024-01-27T08:52:03;53.25;;;24.77;;
50683;SDS011;36654;45.042;38.994;2024-01-27T08:54:29;43.65;;;23.10;;
50683;SDS011;36654;45.042;38.994;2024-01-27T08:56:55;37.78;;;20.95;;
50683;SDS011;36654;45.042;38.994;2024-01-27T08:59:21;37.53;;;18.55;;
50683;SDS011;36654;45.042;38.994;2024-01-27T09:01:46;36.35;;;18.30;;
50683;SDS011;36654;45.042;38.994;2024-01-27T09:04:13;40.38;;;20.67;;
50683;SDS011;36654;45.042;38.994;2024-01-27T09:06:38;38.38;;;19.75;;
50683;SDS011;36654;45.042;38.994;2024-01-27T09:09:04;37.95;;;18.42;;
50683;SDS011;36654;45.042;38.994;2024-01-27T09:11:30;38.60;;;18.48;;
50683;SDS011;36654;45.042;38.994;2024-01-27T09:13:57;36.15;;;18.35;;
50683;SDS011;36654;45.042;38.994;2024-01-27T09:16:23;36.75;;;18.27;;
50683;SDS011;36654;45.042;38.994;2024-01-27T09:18:50;40.20;;;19.40;;
50683;SDS011;36654;45.042;38.994;2024-01-27T09:21:16;37.92;;;18.80;;
50683;SDS011;36654;45.042;38.994;2024-01-27T09:23:47;36.10;;;17.02;;
50683;SDS011;36654;45.042;38.994;2024-01-27T09:26:13;37.20;;;18.10;;
50683;SDS011;36654;45.042;38.994;2024-01-27T09:28:41;39.75;;;18.77;;
50683;SDS011;36654;45.042;38.994;2024-01-27T09:31:12;42.70;;;19.95;;
50683;SDS011;36654;45.042;38.994;2024-01-27T09:33:48;38.30;;;19.10;;
50683;SDS011;36654;45.042;38.994;2024-01-27T09:36:15;39.00;;;19.52;;
50683;SDS011;36654;45.042;38.994;2024-01-27T09:38:40;38.83;;;20.45;;
50683;SDS011;36654;45.042;38.994;2024-01-27T09:41:06;40.78;;;20.83;;
50683;SDS011;36654;45.042;38.994;2024-01-27T09:43:56;36.92;;;18.95;;
50683;SDS011;36654;45.042;38.994;2024-01-27T09:46:28;52.15;;;25.88;;
50683;SDS011;36654;45.042;38.994;2024-01-27T09:48:55;46.75;;;22.42;;
50683;SDS011;36654;45.042;38.994;2024-01-27T09:51:30;40.97;;;20.52;;
50683;SDS011;36654;45.042;38.994;2024-01-27T09:53:56;43.17;;;20.75;;
50683;SDS011;36654;45.042;38.994;2024-01-27T09:56:27;38.58;;;18.98;;
50683;SDS011;36654;45.042;38.994;2024-01-27T09:58:57;36.47;;;18.42;;
50683;SDS011;36654;45.042;38.994;2024-01-27T10:01:24;34.33;;;18.13;;
50683;SDS011;36654;45.042;38.994;2024-01-27T10:03:52;41.22;;;19.00;;
50683;SDS011;36654;45.042;38.994;2024-01-27T10:06:19;33.55;;;17.13;;
50683;SDS011;36654;45.042;38.994;2024-01-27T10:08:54;32.28;;;16.08;;
50683;SDS011;36654;45.042;38.994;2024-01-27T10:11:21;34.35;;;17.85;;
50683;SDS011;36654;45.042;38.994;2024-01-27T10:13:56;30.98;;;15.63;;
50683;SDS011;36654;45.042;38.994;2024-01-27T10:16:23;32.67;;;17.10;;
50683;SDS011;36654;45.042;38.994;2024-01-27T10:18:58;35.28;;;16.60;;
50683;SDS011;36654;45.042;38.994;2024-01-27T10:21:27;31.88;;;16.25;;
50683;SDS011;36654;45.042;38.994;2024-01-27T10:23:54;32.92;;;16.35;;
50683;SDS011;36654;45.042;38.994;2024-01-27T10:26:21;28.85;;;15.60;;
50683;SDS011;36654;45.042;38.994;2024-01-27T10:28:54;27.73;;;14.20;;
50683;SDS011;36654;45.042;38.994;2024-01-27T10:31:25;27.40;;;15.20;;
50683;SDS011;36654;45.042;38.994;2024-01-27T10:33:55;28.67;;;14.15;;
50683;SDS011;36654;45.042;38.994;2024-01-27T10:36:22;25.48;;;13.13;;
50683;SDS011;36654;45.042;38.994;2024-01-27T10:38:48;22.15;;;12.07;;
50683;SDS011;36654;45.042;38.994;2024-01-27T10:41:19;23.33;;;12.13;;
50683;SDS011;36654;45.042;38.994;2024-01-27T10:43:49;30.45;;;16.15;;
50683;SDS011;36654;45.042;38.994;2024-01-27T10:46:20;25.40;;;13.60;;
50683;SDS011;36654;45.042;38.994;2024-01-27T10:48:49;22.20;;;11.95;;
50683;SDS011;36654;45.042;38.994;2024-01-27T10:51:22;20.60;;;12.10;;
50683;SDS011;36654;45.042;38.994;2024-01-27T10:53:55;21.27;;;12.30;;
50683;SDS011;36654;45.042;38.994;2024-01-27T10:56:31;27.05;;;13.57;;
50683;SDS011;36654;45.042;38.994;2024-01-27T10:58:58;22.92;;;12.25;;
50683;SDS011;36654;45.042;38.994;2024-01-27T11:01:24;20.35;;;10.48;;
50683;SDS011;36654;45.042;38.994;2024-01-27T11:03:52;15.43;;;8.82;;
50683;SDS011;36654;45.042;38.994;2024-01-27T11:06:21;15.35;;;8.50;;
50683;SDS011;36654;45.042;38.994;2024-01-27T11:08:51;13.98;;;7.90;;
50683;SDS011;36654;45.042;38.994;2024-01-27T11:11:17;12.43;;;8.00;;
50683;SDS011;36654;45.042;38.994;2024-01-27T11:13:44;13.65;;;8.60;;
50683;SDS011;36654;45.042;38.994;2024-01-27T11:18:43;17.67;;;8.40;;
50683;SDS011;36654;45.042;38.994;2024-01-27T11:21:12;15.55;;;8.25;;
50683;SDS011;36654;45.042;38.994;2024-01-27T11:23:41;17.60;;;9.77;;
50683;SDS011;36654;45.042;38.994;2024-01-27T11:26:08;15.55;;;9.52;;
50683;SDS011;36654;45.042;38.994;2024-01-27T11:28:35;16.27;;;10.02;;
50683;SDS011;36654;45.042;38.994;2024-01-27T11:31:06;17.27;;;10.23;;
50683;SDS011;36654;45.042;38.994;2024-01-27T11:33:32;16.35;;;8.90;;
50683;SDS011;36654;45.042;38.994;2024-01-27T11:36:03;11.98;;;7.82;;
50683;SDS011;36654;45.042;38.994;2024-01-27T11:38:31;13.48;;;7.70;;
50683;SDS011;36654;45.042;38.994;2024-01-27T11:40:59;15.30;;;8.98;;
50683;SDS011;36654;45.042;38.994;2024-01-27T11:43:26;12.85;;;8.20;;
50683;SDS011;36654;45.042;38.994;2024-01-27T11:45:58;13.98;;;8.13;;
50683;SDS011;36654;45.042;38.994;2024-01-27T11:48:25;23.48;;;13.25;;
50683;SDS011;36654;45.042;38.994;2024-01-27T11:53:35;17.05;;;9.20;;
50683;SDS011;36654;45.042;38.994;2024-01-27T11:56:00;13.95;;;8.48;;
50683;SDS011;36654;45.042;38.994;2024-01-27T11:58:27;16.15;;;9.55;;
50683;SDS011;36654;45.042;38.994;2024-01-27T12:00:53;15.25;;;9.15;;
50683;SDS011;36654;45.042;38.994;2024-01-27T12:03:19;14.07;;;9.70;;
50683;SDS011;36654;45.042;38.994;2024-01-27T12:05:45;15.00;;;8.25;;
50683;SDS011;36654;45.042;38.994;2024-01-27T12:08:11;14.15;;;8.43;;
50683;SDS011;36654;45.042;38.994;2024-01-27T12:10:36;13.75;;;8.90;;
50683;SDS011;36654;45.042;38.994;2024-01-27T12:13:02;17.20;;;10.38;;
50683;SDS011;36654;45.042;38.994;2024-01-27T12:15:28;18.42;;;9.35;;
50683;SDS011;36654;45.042;38.994;2024-01-27T12:17:54;14.43;;;9.50;;
50683;SDS011;36654;45.042;38.994;2024-01-27T12:20:21;16.83;;;9.63;;
50683;SDS011;36654;45.042;38.994;2024-01-27T12:22:48;15.07;;;8.98;;
50683;SDS011;36654;45.042;38.994;2024-01-27T12:25:16;18.35;;;9.93;;
50683;SDS011;36654;45.042;38.994;2024-01-27T12:27:43;14.88;;;9.38;;
50683;SDS011;36654;45.042;38.994;2024-01-27T12:30:09;20.38;;;10.93;;
50683;SDS011;36654;45.042;38.994;2024-01-27T12:32:38;19.40;;;11.18;;
50683;SDS011;36654;45.042;38.994;2024-01-27T12:35:07;22.73;;;11.00;;
50683;SDS011;36654;45.042;38.994;2024-01-27T12:37:36;17.45;;;10.20;;
50683;SDS011;36654;45.042;38.994;2024-01-27T12:40:02;18.90;;;10.73;;
50683;SDS011;36654;45.042;38.994;2024-01-27T12:42:41;19.88;;;10.82;;
50683;SDS011;36654;45.042;38.994;2024-01-27T12:45:07;18.58;;;11.00;;
50683;SDS011;36654;45.042;38.994;2024-01-27T12:47:33;21.13;;;11.75;;
50683;SDS011;36654;45.042;38.994;2024-01-27T12:49:59;15.57;;;9.57;;
50683;SDS011;36654;45.042;38.994;2024-01-27T12:52:24;17.20;;;10.70;;
50683;SDS011;36654;45.042;38.994;2024-01-27T12:54:50;20.10;;;11.95;;
50683;SDS011;36654;45.042;38.994;2024-01-27T12:57:16;20.02;;;12.18;;
50683;SDS011;36654;45.042;38.994;2024-01-27T12:59:43;20.35;;;11.88;;
50683;SDS011;36654;45.042;38.994;2024-01-27T13:02:08;18.85;;;10.65;;
50683;SDS011;36654;45.042;38.994;2024-01-27T13:04:34;19.08;;;11.25;;
50683;SDS011;36654;45.042;38.994;2024-01-27T13:07:00;17.42;;;10.63;;
50683;SDS011;36654;45.042;38.994;2024-01-27T13:09:25;18.33;;;10.75;;
50683;SDS011;36654;45.042;38.994;2024-01-27T13:11:51;20.20;;;11.32;;
50683;SDS011;36654;45.042;38.994;2024-01-27T13:14:17;16.25;;;9.82;;
50683;SDS011;36654;45.042;38.994;2024-01-27T13:16:45;14.65;;;8.57;;
50683;SDS011;36654;45.042;38.994;2024-01-27T13:19:11;15.10;;;8.80;;
50683;SDS011;36654;45.042;38.994;2024-01-27T13:21:36;14.90;;;8.70;;
50683;SDS011;36654;45.042;38.994;2024-01-27T13:24:02;17.13;;;8.93;;
50683;SDS011;36654;45.042;38.994;2024-01-27T13:26:28;15.93;;;9.52;;
50683;SDS011;36654;45.042;38.994;2024-01-27T13:28:55;14.48;;;8.32;;
50683;SDS011;36654;45.042;38.994;2024-01-27T13:31:21;13.85;;;7.68;;
50683;SDS011;36654;45.042;38.994;2024-01-27T13:33:47;15.02;;;8.10;;
50683;SDS011;36654;45.042;38.994;2024-01-27T13:36:12;14.25;;;7.53;;
50683;SDS011;36654;45.042;38.994;2024-01-27T13:38:38;15.18;;;8.13;;
50683;SDS011;36654;45.042;38.994;2024-01-27T13:41:04;13.52;;;8.07;;
50683;SDS011;36654;45.042;38.994;2024-01-27T13:43:29;13.55;;;7.72;;
50683;SDS011;36654;45.042;38.994;2024-01-27T13:45:55;13.73;;;7.40;;
50683;SDS011;36654;45.042;38.994;2024-01-27T13:48:21;12.43;;;6.97;;
50683;SDS011;36654;45.042;38.994;2024-01-27T13:50:47;13.70;;;7.45;;
50683;SDS011;36654;45.042;38.994;2024-01-27T13:53:12;14.90;;;9.13;;
50683;SDS011;36654;45.042;38.994;2024-01-27T13:55:38;14.57;;;8.02;;
50683;SDS011;36654;45.042;38.994;2024-01-27T13:58:05;15.07;;;7.88;;
50683;SDS011;36654;45.042;38.994;2024-01-27T14:00:31;14.90;;;8.00;;
50683;SDS011;36654;45.042;38.994;2024-01-27T14:03:02;13.23;;;7.13;;
50683;SDS011;36654;45.042;38.994;2024-01-27T14:05:28;16.55;;;8.45;;
50683;SDS011;36654;45.042;38.994;2024-01-27T14:07:55;16.73;;;9.25;;
50683;SDS011;36654;45.042;38.994;2024-01-27T14:10:20;15.18;;;7.90;;
50683;SDS011;36654;45.042;38.994;2024-01-27T14:12:46;15.35;;;9.25;;
50683;SDS011;36654;45.042;38.994;2024-01-27T14:15:12;14.70;;;8.52;;
50683;SDS011;36654;45.042;38.994;2024-01-27T14:17:37;15.75;;;9.48;;
50683;SDS011;36654;45.042;38.994;2024-01-27T14:20:03;16.23;;;8.60;;
50683;SDS011;36654;45.042;38.994;2024-01-27T14:22:30;15.43;;;9.07;;
50683;SDS011;36654;45.042;38.994;2024-01-27T14:24:56;17.45;;;9.32;;